Aeroporto :
LOGIN :

Iscrizione | Disclaimer

   EN    FR    IT 

 










Sommario :    VFR   VFR Marginale   IFR   IFR Intensivo   IFR Molto Intensivo
Visibilità : 
Base nubi : 
>= 8 km
>= 3000ft
5 / 8 km
1000 / 3000 ft
1500m / 5 km
500 / 1000 ft
800 / 1500m
200 / 500 ft
< 800m
< 200 ft
Simboli :   Temporali  Nebbia  Neve Forte  Precipitazioni Forti  Vento > 20 kt
SIGMETs :   Varie  Temporali  Ghiacco  Turbolenza  Onda orograficha  Ceneri Vulcaniche






- Altitudine del aeroporto : 512 ft
- Codice IATA : URO


LFOP - Rouen Vallée de Seine

ULTIMO METAR :
  • 131200Z AUTO 21009KT 9999 SCT010 BKN017 BKN024 09/07 Q1003 TEMPO SHRA BKN030TCU

METARs OBSOLETI :
  • 131130Z AUTO 23005KT 9999 BKN013 BKN023 BKN032 08/07 Q1003 TEMPO SHRA BKN030TCU
  • 131100Z AUTO 26007KT 9999 FEW014 SCT038 BKN046 07/06 Q1004 TEMPO 3000 RA BR BKN030TCU
  • 131030Z AUTO 28009KT 260V320 9999 BKN011/// BKN016/// OVC024/// ///TCU 07/07 Q1004 TEMPO 3000 RA BR BKN030TCU
  • 131000Z AUTO 25010KT 9999 FEW012 SCT022 BKN039 08/07 Q1004 TEMPO 3000 RA BR BKN004 BKN030TCU

TAF TAF LFOP
Valido dal 13 a 12 ore il 14 a 12 ore UTC


131100Z 1312/1412 25010KT 9999 BKN035
TEMPO 1312/1317 SHRA BKN030TCU
BECMG 1318/1321 17015G25KT OVC013
TEMPO 1321/1402 3000 RA OVC007
BECMG 1402/1404 22012KT BKN020
PROB30
TEMPO 1406/1409 OVC005
ATIS : +33 2 35 80 80 34
Met : +33 2 32 86 52 80



MetMap, La meteo Aeronautica in un colpo d'occhio ! - Copyright ORBIFLY Dicembre 2007 - Disclaimer

ORBIFLY MET'MAP TEAM :

Programmazione e sviluppo : Alexandra Zaïnal
Concezione e sviluppo : Baudouin d'Aumeries
Co-Programmazione e sviluppo : Marc-Olivier Méhu
Supporto tecnico e logistico : Manuel Goepfert
Aiuto per la traduzione : Arnaldo La Scala

Contatto : metmap@orbifly.com




FONTI E CREDITI :

   NOAA